Mark Shell — WDI7434 — position and weather

sailwx.info

Track history (hours):
 
Tides and Currents Weather Stations Pressure Air Temp Water Temp Dewpoint Dewpoint Depression Visibility Wind Speed Wind Dir Waves Ship Positions

Mark Shell

Owner: Kirby Inland Marine LP, Houston, TX. More information available from US FCC via Universal Licensing System and Coast Guard Vessel Documentation Center.

Last reported at 2018-Jul-17 11:30 UTC. Time now 2018-Jul-17 11:42 UTC.
Position N 29°25' W 094°44'.

Length 30 m; draft 3 m.

Type: . MMSI: 367728680.

Date/timePositionNaut miles runAvg speedWind from/ knotsBaromVisibWave heightAir tempDewpointWater temp
2018-Jul-17 11:30N 29°25' W 094°44'0 0.0
2018-Jul-17 11:00N 29°25' W 094°44'0 0.0
2018-Jul-17 10:30N 29°25' W 094°44'0 0.0
2018-Jul-17 09:59N 29°25' W 094°44'0 0.0
2018-Jul-17 09:30N 29°25' W 094°44'0 0.0
2018-Jul-17 08:59N 29°25' W 094°44'0 0.0
2018-Jul-17 08:30N 29°25' W 094°44'2 3.8
2018-Jul-17 08:00N 29°24' W 094°45'2 4.9
2018-Jul-17 07:30N 29°22' W 094°47'4 7.3
2018-Jul-17 07:00N 29°25' W 094°50'4 8.2
2018-Jul-17 06:30N 29°29' W 094°52'4 8.3
2018-Jul-17 06:00N 29°32' W 094°54'4 7.8
2018-Jul-17 05:30N 29°36' W 094°57'4 7.6
2018-Jul-17 05:00N 29°39' W 094°58'4 7.1
2018-Jul-17 04:30N 29°42' W 095°01'3 4.8
2018-Jul-17 03:57N 29°44' W 095°03'3 6.6
2018-Jul-17 03:30N 29°46' W 095°05'1 1.3
2018-Jul-17 03:00N 29°47' W 095°05'1 0.5
2018-Jul-17 01:36N 29°47' W 095°04'2 0.6
2018-Jul-16 21:41N 29°45' W 095°06'2 0.2
2018-Jul-16 14:06N 29°47' W 095°05'0 0.0
2018-Jul-16 13:57N 29°47' W 095°05'0 0.0
2018-Jul-16 13:30N 29°47' W 095°05'0 0.0
2018-Jul-16 12:57N 29°47' W 095°05'0 0.0
2018-Jul-16 12:30N 29°47' W 095°05'0 0.0
2018-Jul-16 11:59N 29°47' W 095°05'0 0.0
2018-Jul-16 11:29N 29°47' W 095°05'0 0.0
2018-Jul-16 10:54N 29°47' W 095°05'0 0.0
2018-Jul-16 10:23N 29°47' W 095°05'0 0.0
2018-Jul-16 09:59N 29°47' W 095°05'0 0.0
2018-Jul-16 09:25N 29°47' W 095°05'0 0.0
2018-Jul-16 08:59N 29°47' W 095°05'0 0.0
2018-Jul-16 08:27N 29°47' W 095°05'0 0.0
2018-Jul-16 08:00N 29°47' W 095°05'0 0.0
2018-Jul-16 07:29N 29°47' W 095°05'0 0.0
2018-Jul-16 06:58N 29°47' W 095°05'0 0.1
2018-Jul-16 06:30N 29°47' W 095°05'1 1.0
2018-Jul-16 05:56N 29°47' W 095°04'0 0.1
2018-Jul-16 05:04N 29°47' W 095°04'0 2.4
2018-Jul-16 05:00N 29°47' W 095°04'3 5.1
2018-Jul-16 04:28N 29°44' W 095°04'3 7.1
2018-Jul-16 04:00N 29°42' W 095°01'4 7.7
2018-Jul-16 03:30N 29°39' W 094°58'2 4.9
2018-Jul-16 03:00N 29°37' W 094°59'2 3.6
2018-Jul-16 02:30N 29°37' W 095°01'0 0.1
2018-Jul-16 01:55N 29°37' W 095°02'0 0.0
2018-Jul-16 01:28N 29°37' W 095°02'0 0.0
2018-Jul-16 00:44N 29°37' W 095°02'0 0.0
2018-Jul-16 00:29N 29°37' W 095°02'0 0.0
2018-Jul-15 23:57N 29°37' W 095°02'0 0.0
2018-Jul-15 23:30N 29°37' W 095°02'0 0.0
2018-Jul-15 23:00N 29°37' W 095°02'0 0.0
2018-Jul-15 22:27N 29°37' W 095°02'0 0.0
2018-Jul-15 21:59N 29°37' W 095°02'0 0.0
2018-Jul-15 21:20N 29°37' W 095°02'0 0.0
2018-Jul-15 20:40N 29°37' W 095°02'0 0.0
2018-Jul-15 20:18N 29°37' W 095°02'0 0.0
2018-Jul-15 20:00N 29°37' W 095°02'0 0.0
2018-Jul-15 18:17N 29°37' W 095°02'0 0.0
2018-Jul-15 17:39N 29°37' W 095°02'0 0.0
2018-Jul-15 17:30N 29°37' W 095°02'0 0.0
2018-Jul-15 17:00N 29°37' W 095°02'0 0.0
2018-Jul-15 16:30N 29°37' W 095°02'0 0.0
2018-Jul-15 16:00N 29°37' W 095°02'0 0.0
2018-Jul-15 15:30N 29°37' W 095°02'0 0.0
2018-Jul-15 14:56N 29°37' W 095°02'0 0.0
2018-Jul-15 14:23N 29°37' W 095°02'0 0.0
2018-Jul-15 13:57N 29°37' W 095°02'0 0.0
2018-Jul-15 13:30N 29°37' W 095°02'0 0.0
2018-Jul-15 13:00N 29°37' W 095°02'0 0.0
2018-Jul-15 12:30N 29°37' W 095°02'0 0.0
2018-Jul-15 12:00N 29°37' W 095°02'0 0.0
2018-Jul-15 11:22N 29°37' W 095°02'0 0.0
2018-Jul-15 10:45N 29°37' W 095°02'0 0.0
2018-Jul-15 10:29N 29°37' W 095°02'0 0.1
2018-Jul-15 10:00N 29°37' W 095°01'0 0.0
2018-Jul-15 09:30N 29°37' W 095°01'0 0.0
2018-Jul-15 09:01N 29°37' W 095°01'0 0.0
2018-Jul-15 08:30N 29°37' W 095°01'0 0.0
2018-Jul-15 08:01N 29°37' W 095°01'0 0.0
2018-Jul-15 07:31N 29°37' W 095°01'0 0.0
2018-Jul-15 07:00N 29°37' W 095°01'0 0.1
2018-Jul-15 06:31N 29°37' W 095°01'0 0.0
2018-Jul-15 06:00N 29°37' W 095°01'3 5.1
2018-Jul-15 05:30N 29°37' W 094°59'4 7.4
2018-Jul-15 05:00N 29°41' W 094°59'5 9.1
2018-Jul-15 04:24N 29°44' W 095°03'2 0.1
2018-Jul-13 22:58N 29°46' W 095°04'1 0.1
2018-Jul-13 12:23N 29°46' W 095°05'1 0.6
2018-Jul-13 11:19N 29°45' W 095°06'2 1.5
2018-Jul-13 09:40N 29°47' W 095°04'1 4.3
2018-Jul-13 09:23N 29°46' W 095°05'1 0.3
2018-Jul-13 06:36N 29°46' W 095°06'0 0.0
2018-Jul-13 06:29N 29°46' W 095°06'0 0.0
2018-Jul-13 06:00N 29°46' W 095°06'0 0.0
2018-Jul-13 05:29N 29°46' W 095°06'0 0.0
2018-Jul-13 04:59N 29°46' W 095°06'0 0.0
2018-Jul-13 04:26N 29°46' W 095°06'0 0.0
2018-Jul-13 03:58N 29°46' W 095°06'0 0.0
2018-Jul-13 03:29N 29°46' W 095°06'0 0.0
2018-Jul-13 03:00N 29°46' W 095°06'1 0.1
2018-Jul-12 15:40N 29°47' W 095°05'1 4.0
2018-Jul-12 15:24N 29°46' W 095°05'3 5.4
2018-Jul-12 14:55N 29°44' W 095°03'1 1.7
2018-Jul-12 14:15N 29°44' W 095°01'0 0.4
2018-Jul-12 13:32N 29°44' W 095°02'0 2.1
2018-Jul-12 13:30N 29°44' W 095°02'0 0.1
2018-Jul-12 12:56N 29°44' W 095°01'2 5.3
2018-Jul-12 12:28N 29°45' W 095°04'2 4.2
2018-Jul-12 12:00N 29°47' W 095°05'1 0.8
2018-Jul-12 11:24N 29°47' W 095°04'0 0.4
2018-Jul-12 10:59N 29°47' W 095°04'0 0.0
2018-Jul-12 10:30N 29°47' W 095°04'0 0.0
2018-Jul-12 09:59N 29°47' W 095°04'0 0.0
2018-Jul-12 09:30N 29°47' W 095°04'2 3.4
2018-Jul-12 09:00N 29°46' W 095°05'1 0.4
2018-Jul-12 07:33N 29°46' W 095°04'0 0.0
2018-Jul-12 07:15N 29°46' W 095°04'0 0.0
2018-Jul-12 07:00N 29°46' W 095°04'0 0.0
2018-Jul-12 06:15N 29°46' W 095°04'0 0.0
2018-Jul-12 06:00N 29°46' W 095°04'0 0.0
2018-Jul-12 05:30N 29°46' W 095°04'1 0.1
2018-Jul-11 14:33N 29°47' W 095°05'0 0.0
2018-Jul-11 14:28N 29°47' W 095°05'0 0.0
2018-Jul-11 13:54N 29°47' W 095°05'0 0.0
2018-Jul-11 13:29N 29°47' W 095°05'0 0.0
2018-Jul-11 13:00N 29°47' W 095°05'0 0.0
2018-Jul-11 12:30N 29°47' W 095°05'0 0.0
2018-Jul-11 11:59N 29°47' W 095°05'0 0.0
2018-Jul-11 11:27N 29°47' W 095°05'0 0.0
2018-Jul-11 11:00N 29°47' W 095°05'0 0.0
2018-Jul-11 10:30N 29°47' W 095°05'0 0.0
2018-Jul-11 09:43N 29°47' W 095°05'0 1.2
2018-Jul-11 09:29N 29°47' W 095°04'0 0.5
2018-Jul-11 08:55N 29°47' W 095°04'0 0.8
2018-Jul-11 08:27N 29°47' W 095°04'0 0.1
2018-Jul-11 07:46N 29°47' W 095°04'0 0.3
2018-Jul-11 07:24N 29°47' W 095°04'0 0.4
2018-Jul-11 07:00N 29°47' W 095°05'0 0.0
2018-Jul-11 06:30N 29°47' W 095°05'0 0.0
2018-Jul-11 06:00N 29°47' W 095°05'0 0.0
2018-Jul-11 05:29N 29°47' W 095°05'0 0.0
2018-Jul-11 05:00N 29°47' W 095°05'0 0.0
2018-Jul-11 04:28N 29°47' W 095°05'0 0.0
2018-Jul-11 03:55N 29°47' W 095°05'0 0.0
2018-Jul-11 03:28N 29°47' W 095°05'0 0.0
2018-Jul-11 02:52N 29°47' W 095°05'0 0.0
2018-Jul-11 02:25N 29°47' W 095°05'1 0.1
2018-Jul-10 14:36N 29°46' W 095°05'1 1.4
2018-Jul-10 13:46N 29°47' W 095°05'0 0.0
2018-Jul-10 13:21N 29°47' W 095°05'0 0.0
2018-Jul-10 13:00N 29°47' W 095°05'0 0.0
2018-Jul-10 12:29N 29°47' W 095°05'0 0.0
2018-Jul-10 11:41N 29°47' W 095°05'0 0.0
2018-Jul-10 11:22N 29°47' W 095°05'0 0.0
2018-Jul-10 10:49N 29°47' W 095°05'0 0.0
2018-Jul-10 10:24N 29°47' W 095°05'0 0.0
2018-Jul-10 09:56N 29°47' W 095°05'0 0.0
2018-Jul-10 09:30N 29°47' W 095°05'0 0.0
2018-Jul-10 08:57N 29°47' W 095°05'0 0.0
2018-Jul-10 07:40N 29°47' W 095°05'0 0.0
2018-Jul-10 07:22N 29°47' W 095°05'0 0.0
2018-Jul-10 06:31N 29°47' W 095°05'0 0.1
2018-Jul-10 06:25N 29°47' W 095°05'0 0.0
2018-Jul-10 06:00N 29°47' W 095°05'0 0.0
2018-Jul-10 05:24N 29°47' W 095°05'0 0.0
2018-Jul-10 04:55N 29°47' W 095°05'0 0.0
2018-Jul-10 04:19N 29°47' W 095°05'0 0.0
2018-Jul-10 03:59N 29°47' W 095°05'0 0.0
2018-Jul-09 14:14N 29°47' W 095°05'0 0.0
2018-Jul-08 17:40N 29°47' W 095°05'0 0.0
2018-Jul-08 13:08N 29°47' W 095°05'0 0.0
2018-Jul-08 13:00N 29°47' W 095°05'0 0.0
2018-Jul-08 10:47N 29°47' W 095°05'0 0.0
2018-Jul-08 10:25N 29°47' W 095°05'0 0.0
2018-Jul-08 10:00N 29°47' W 095°05'0 0.0
2018-Jul-08 07:05N 29°47' W 095°05'0 0.0
2018-Jul-08 06:54N 29°47' W 095°05'0 0.0
2018-Jul-08 06:30N 29°47' W 095°05'0 0.0
2018-Jul-08 05:59N 29°47' W 095°05'  
Track history (hours):
 
Tides and Currents Weather Stations Pressure Air Temp Water Temp Dewpoint Dewpoint Depression Visibility Wind Speed Wind Dir Waves Ship Positions

Mark Shell

Owner: Kirby Inland Marine LP, Houston, TX. More information available from US FCC via Universal Licensing System and Coast Guard Vessel Documentation Center.

Last reported at 2018-Jul-17 11:30 UTC. Time now 2018-Jul-17 11:42 UTC.
Position N 29°25' W 094°44'.

Length 30 m; draft 3 m.

Type: . MMSI: 367728680.

Date/timePositionNaut miles runAvg speedWind from/ knotsBaromVisibWave heightAir tempDewpointWater temp
2018-Jul-17 11:30N 29°25' W 094°44'0 0.0
2018-Jul-17 11:00N 29°25' W 094°44'0 0.0
2018-Jul-17 10:30N 29°25' W 094°44'0 0.0
2018-Jul-17 09:59N 29°25' W 094°44'0 0.0
2018-Jul-17 09:30N 29°25' W 094°44'0 0.0
2018-Jul-17 08:59N 29°25' W 094°44'0 0.0
2018-Jul-17 08:30N 29°25' W 094°44'2 3.8
2018-Jul-17 08:00N 29°24' W 094°45'2 4.9
2018-Jul-17 07:30N 29°22' W 094°47'4 7.3
2018-Jul-17 07:00N 29°25' W 094°50'4 8.2
2018-Jul-17 06:30N 29°29' W 094°52'4 8.3
2018-Jul-17 06:00N 29°32' W 094°54'4 7.8
2018-Jul-17 05:30N 29°36' W 094°57'4 7.6
2018-Jul-17 05:00N 29°39' W 094°58'4 7.1
2018-Jul-17 04:30N 29°42' W 095°01'3 4.8
2018-Jul-17 03:57N 29°44' W 095°03'3 6.6
2018-Jul-17 03:30N 29°46' W 095°05'1 1.3
2018-Jul-17 03:00N 29°47' W 095°05'1 0.5
2018-Jul-17 01:36N 29°47' W 095°04'2 0.6
2018-Jul-16 21:41N 29°45' W 095°06'2 0.2
2018-Jul-16 14:06N 29°47' W 095°05'0 0.0
2018-Jul-16 13:57N 29°47' W 095°05'0 0.0
2018-Jul-16 13:30N 29°47' W 095°05'0 0.0
2018-Jul-16 12:57N 29°47' W 095°05'0 0.0
2018-Jul-16 12:30N 29°47' W 095°05'0 0.0
2018-Jul-16 11:59N 29°47' W 095°05'0 0.0
2018-Jul-16 11:29N 29°47' W 095°05'0 0.0
2018-Jul-16 10:54N 29°47' W 095°05'0 0.0
2018-Jul-16 10:23N 29°47' W 095°05'0 0.0
2018-Jul-16 09:59N 29°47' W 095°05'0 0.0
2018-Jul-16 09:25N 29°47' W 095°05'0 0.0
2018-Jul-16 08:59N 29°47' W 095°05'0 0.0
2018-Jul-16 08:27N 29°47' W 095°05'0 0.0
2018-Jul-16 08:00N 29°47' W 095°05'0 0.0
2018-Jul-16 07:29N 29°47' W 095°05'0 0.0
2018-Jul-16 06:58N 29°47' W 095°05'0 0.1
2018-Jul-16 06:30N 29°47' W 095°05'1 1.0
2018-Jul-16 05:56N 29°47' W 095°04'0 0.1
2018-Jul-16 05:04N 29°47' W 095°04'0 2.4
2018-Jul-16 05:00N 29°47' W 095°04'3 5.1
2018-Jul-16 04:28N 29°44' W 095°04'3 7.1
2018-Jul-16 04:00N 29°42' W 095°01'4 7.7
2018-Jul-16 03:30N 29°39' W 094°58'2 4.9
2018-Jul-16 03:00N 29°37' W 094°59'2 3.6
2018-Jul-16 02:30N 29°37' W 095°01'0 0.1
2018-Jul-16 01:55N 29°37' W 095°02'0 0.0
2018-Jul-16 01:28N 29°37' W 095°02'0 0.0
2018-Jul-16 00:44N 29°37' W 095°02'0 0.0
2018-Jul-16 00:29N 29°37' W 095°02'0 0.0
2018-Jul-15 23:57N 29°37' W 095°02'0 0.0
2018-Jul-15 23:30N 29°37' W 095°02'0 0.0
2018-Jul-15 23:00N 29°37' W 095°02'0 0.0
2018-Jul-15 22:27N 29°37' W 095°02'0 0.0
2018-Jul-15 21:59N 29°37' W 095°02'0 0.0
2018-Jul-15 21:20N 29°37' W 095°02'0 0.0
2018-Jul-15 20:40N 29°37' W 095°02'0 0.0
2018-Jul-15 20:18N 29°37' W 095°02'0 0.0
2018-Jul-15 20:00N 29°37' W 095°02'0 0.0
2018-Jul-15 18:17N 29°37' W 095°02'0 0.0
2018-Jul-15 17:39N 29°37' W 095°02'0 0.0
2018-Jul-15 17:30N 29°37' W 095°02'0 0.0
2018-Jul-15 17:00N 29°37' W 095°02'0 0.0
2018-Jul-15 16:30N 29°37' W 095°02'0 0.0
2018-Jul-15 16:00N 29°37' W 095°02'0 0.0
2018-Jul-15 15:30N 29°37' W 095°02'0 0.0
2018-Jul-15 14:56N 29°37' W 095°02'0 0.0
2018-Jul-15 14:23N 29°37' W 095°02'0 0.0
2018-Jul-15 13:57N 29°37' W 095°02'0 0.0
2018-Jul-15 13:30N 29°37' W 095°02'0 0.0
2018-Jul-15 13:00N 29°37' W 095°02'0 0.0
2018-Jul-15 12:30N 29°37' W 095°02'0 0.0
2018-Jul-15 12:00N 29°37' W 095°02'0 0.0
2018-Jul-15 11:22N 29°37' W 095°02'0 0.0
2018-Jul-15 10:45N 29°37' W 095°02'0 0.0
2018-Jul-15 10:29N 29°37' W 095°02'0 0.1
2018-Jul-15 10:00N 29°37' W 095°01'0 0.0
2018-Jul-15 09:30N 29°37' W 095°01'0 0.0
2018-Jul-15 09:01N 29°37' W 095°01'0 0.0
2018-Jul-15 08:30N 29°37' W 095°01'0 0.0
2018-Jul-15 08:01N 29°37' W 095°01'0 0.0
2018-Jul-15 07:31N 29°37' W 095°01'0 0.0
2018-Jul-15 07:00N 29°37' W 095°01'0 0.1
2018-Jul-15 06:31N 29°37' W 095°01'0 0.0
2018-Jul-15 06:00N 29°37' W 095°01'3 5.1
2018-Jul-15 05:30N 29°37' W 094°59'4 7.4
2018-Jul-15 05:00N 29°41' W 094°59'5 9.1
2018-Jul-15 04:24N 29°44' W 095°03'2 0.1
2018-Jul-13 22:58N 29°46' W 095°04'1 0.1
2018-Jul-13 12:23N 29°46' W 095°05'1 0.6
2018-Jul-13 11:19N 29°45' W 095°06'2 1.5
2018-Jul-13 09:40N 29°47' W 095°04'1 4.3
2018-Jul-13 09:23N 29°46' W 095°05'1 0.3
2018-Jul-13 06:36N 29°46' W 095°06'0 0.0
2018-Jul-13 06:29N 29°46' W 095°06'0 0.0
2018-Jul-13 06:00N 29°46' W 095°06'0 0.0
2018-Jul-13 05:29N 29°46' W 095°06'0 0.0
2018-Jul-13 04:59N 29°46' W 095°06'0 0.0
2018-Jul-13 04:26N 29°46' W 095°06'0 0.0
2018-Jul-13 03:58N 29°46' W 095°06'0 0.0
2018-Jul-13 03:29N 29°46' W 095°06'0 0.0
2018-Jul-13 03:00N 29°46' W 095°06'1 0.1
2018-Jul-12 15:40N 29°47' W 095°05'1 4.0
2018-Jul-12 15:24N 29°46' W 095°05'3 5.4
2018-Jul-12 14:55N 29°44' W 095°03'1 1.7
2018-Jul-12 14:15N 29°44' W 095°01'0 0.4
2018-Jul-12 13:32N 29°44' W 095°02'0 2.1
2018-Jul-12 13:30N 29°44' W 095°02'0 0.1
2018-Jul-12 12:56N 29°44' W 095°01'2 5.3
2018-Jul-12 12:28N 29°45' W 095°04'2 4.2
2018-Jul-12 12:00N 29°47' W 095°05'1 0.8
2018-Jul-12 11:24N 29°47' W 095°04'0 0.4
2018-Jul-12 10:59N 29°47' W 095°04'0 0.0
2018-Jul-12 10:30N 29°47' W 095°04'0 0.0
2018-Jul-12 09:59N 29°47' W 095°04'0 0.0
2018-Jul-12 09:30N 29°47' W 095°04'2 3.4
2018-Jul-12 09:00N 29°46' W 095°05'1 0.4
2018-Jul-12 07:33N 29°46' W 095°04'0 0.0
2018-Jul-12 07:15N 29°46' W 095°04'0 0.0
2018-Jul-12 07:00N 29°46' W 095°04'0 0.0
2018-Jul-12 06:15N 29°46' W 095°04'0 0.0
2018-Jul-12 06:00N 29°46' W 095°04'0 0.0
2018-Jul-12 05:30N 29°46' W 095°04'1 0.1
2018-Jul-11 14:33N 29°47' W 095°05'0 0.0
2018-Jul-11 14:28N 29°47' W 095°05'0 0.0
2018-Jul-11 13:54N 29°47' W 095°05'0 0.0
2018-Jul-11 13:29N 29°47' W 095°05'0 0.0
2018-Jul-11 13:00N 29°47' W 095°05'0 0.0
2018-Jul-11 12:30N 29°47' W 095°05'0 0.0
2018-Jul-11 11:59N 29°47' W 095°05'0 0.0
2018-Jul-11 11:27N 29°47' W 095°05'0 0.0
2018-Jul-11 11:00N 29°47' W 095°05'0 0.0
2018-Jul-11 10:30N 29°47' W 095°05'0 0.0
2018-Jul-11 09:43N 29°47' W 095°05'0 1.2
2018-Jul-11 09:29N 29°47' W 095°04'0 0.5
2018-Jul-11 08:55N 29°47' W 095°04'0 0.8
2018-Jul-11 08:27N 29°47' W 095°04'0 0.1
2018-Jul-11 07:46N 29°47' W 095°04'0 0.3
2018-Jul-11 07:24N 29°47' W 095°04'0 0.4
2018-Jul-11 07:00N 29°47' W 095°05'0 0.0
2018-Jul-11 06:30N 29°47' W 095°05'0 0.0
2018-Jul-11 06:00N 29°47' W 095°05'0 0.0
2018-Jul-11 05:29N 29°47' W 095°05'0 0.0
2018-Jul-11 05:00N 29°47' W 095°05'0 0.0
2018-Jul-11 04:28N 29°47' W 095°05'0 0.0
2018-Jul-11 03:55N 29°47' W 095°05'0 0.0
2018-Jul-11 03:28N 29°47' W 095°05'0 0.0
2018-Jul-11 02:52N 29°47' W 095°05'0 0.0
2018-Jul-11 02:25N 29°47' W 095°05'1 0.1
2018-Jul-10 14:36N 29°46' W 095°05'1 1.4
2018-Jul-10 13:46N 29°47' W 095°05'0 0.0
2018-Jul-10 13:21N 29°47' W 095°05'0 0.0
2018-Jul-10 13:00N 29°47' W 095°05'0 0.0
2018-Jul-10 12:29N 29°47' W 095°05'0 0.0
2018-Jul-10 11:41N 29°47' W 095°05'0 0.0
2018-Jul-10 11:22N 29°47' W 095°05'0 0.0
2018-Jul-10 10:49N 29°47' W 095°05'0 0.0
2018-Jul-10 10:24N 29°47' W 095°05'0 0.0
2018-Jul-10 09:56N 29°47' W 095°05'0 0.0
2018-Jul-10 09:30N 29°47' W 095°05'0 0.0
2018-Jul-10 08:57N 29°47' W 095°05'0 0.0
2018-Jul-10 07:40N 29°47' W 095°05'0 0.0
2018-Jul-10 07:22N 29°47' W 095°05'0 0.0
2018-Jul-10 06:31N 29°47' W 095°05'0 0.1
2018-Jul-10 06:25N 29°47' W 095°05'0 0.0
2018-Jul-10 06:00N 29°47' W 095°05'0 0.0
2018-Jul-10 05:24N 29°47' W 095°05'0 0.0
2018-Jul-10 04:55N 29°47' W 095°05'0 0.0
2018-Jul-10 04:19N 29°47' W 095°05'0 0.0
2018-Jul-10 03:59N 29°47' W 095°05'0 0.0
2018-Jul-09 14:14N 29°47' W 095°05'0 0.0
2018-Jul-08 17:40N 29°47' W 095°05'0 0.0
2018-Jul-08 13:08N 29°47' W 095°05'0 0.0
2018-Jul-08 13:00N 29°47' W 095°05'0 0.0
2018-Jul-08 10:47N 29°47' W 095°05'0 0.0
2018-Jul-08 10:25N 29°47' W 095°05'0 0.0
2018-Jul-08 10:00N 29°47' W 095°05'0 0.0
2018-Jul-08 07:05N 29°47' W 095°05'0 0.0
2018-Jul-08 06:54N 29°47' W 095°05'0 0.0
2018-Jul-08 06:30N 29°47' W 095°05'0 0.0
2018-Jul-08 05:59N 29°47' W 095°05'  

Dump ship's entire track history